KFRI/FRI METAR and TAF weather

Enter ICAO airport designator
Station Type Date Time Source
KFRI METAR 2019/06/19 02:56 UTC NOAA

KFRI 190256Z AUTO 00000KT 10SM SCT010 BKN023 BKN070 OVC090 20/18 A2985 RMK AO2 CIG 023V075 BKN023 V SCT SLP099 T01960181 50004


Station Type Date Time Source
KFRI Decoded METAR 2019/06/19 02:56 UTC NOAA

Fort Riley, Marshall AAF Ft Riley, KS, United States (KFRI) 39-03-20N 096-45-51W
Jun 18, 2019 - 10:56 PM EDT / 2019.06.19 0256 UTC
Wind: Calm:0
Visibility: 10 mile(s):0
Sky conditions: overcast
Temperature: 67.3 F (19.6 C)
Dew Point: 64.6 F (18.1 C)
Relative Humidity: 91%
Pressure (altimeter): 29.85 in. Hg (1010 hPa)
Pressure tendency: 0.01 inches (0.4 hPa) higher than three hours ago
ob: KFRI 190256Z AUTO 00000KT 10SM SCT010 BKN023 BKN070 OVC090 20/18 A2985 RMK AO2 CIG 023V075 BKN023 V SCT SLP099 T01960181 50004
cycle: 3

Station Type Date Time Source
KFRI TAF 2019/06/19 01:25 UTC NOAA

TAF
AMD KFRI 190100Z 1901/2003 04009KT 8000 -RA OVC010 QNH2976INS
BECMG 1903/1904 07010G15KT 8000 -RA BKN007 QNH2975INS
BECMG 1908/1909 02009KT 6000 -RA BR OVC005 QNH2975INS
BECMG 1914/1915 34006KT 8000 -SHRA SCT005 OVC025 QNH2975INS
BECMG 2000/2001 29006KT 9999 NSW BKN030 QNH2974INS TX25/1921Z TN16/1912Z

Example: see airport list